Time;durP1;ratioP1;P1;durP2;ratioP2;P2;SDS_P1;SDS_P2;PMS_P1;PMS_P2;Temp;Humidity;BMP_temperature;BMP_pressure;BME280_temperature;BME280_humidity;BME280_pressure;Samples;Min_cycle;Max_cycle;Signal;HPM_P1;HPM_P2
2022/07/17 00:02:16;;;;;;;8.73;2.40;;;13.00;46.80;;;;;;5010143;28;20456;-55
2022/07/17 00:04:42;;;;;;;2.63;1.17;;;12.90;38.70;;;;;;5007566;28;20460;-55
2022/07/17 00:07:10;;;;;;;5.60;2.13;;;12.90;43.00;;;;;;5015027;28;20488;-53
2022/07/17 00:09:37;;;;;;;3.83;1.70;;;12.90;43.30;;;;;;5010947;28;20463;-54
2022/07/17 00:12:04;;;;;;;3.80;1.80;;;12.80;42.70;;;;;;5009934;28;20464;-54
2022/07/17 00:14:31;;;;;;;7.37;2.70;;;12.80;34.30;;;;;;5006280;28;20896;-55
2022/07/17 00:16:57;;;;;;;5.37;2.10;;;12.80;37.70;;;;;;5009736;28;20483;-54
2022/07/17 00:19:24;;;;;;;4.40;1.70;;;12.70;40.80;;;;;;5008908;28;20499;-54
2022/07/17 00:21:51;;;;;;;2.87;1.70;;;12.60;40.20;;;;;;5013062;28;21958;-55
2022/07/17 00:24:20;;;;;;;4.40;1.70;;;12.60;34.30;;;;;;5009594;28;20503;-54
2022/07/17 00:26:47;;;;;;;7.37;1.80;;;12.60;33.70;;;;;;5008440;28;20967;-53
2022/07/17 00:29:14;;;;;;;6.03;1.53;;;12.50;35.40;;;;;;5001786;28;20471;-55
2022/07/17 00:31:40;;;;;;;7.40;2.03;;;12.50;36.20;;;;;;5009341;28;20824;-53
2022/07/17 00:34:07;;;;;;;4.33;1.60;;;12.50;32.30;;;;;;5007075;28;20583;-52
2022/07/17 00:36:34;;;;;;;1.63;1.53;;;12.50;31.10;;;;;;5009886;28;20534;-54
2022/07/17 00:39:00;;;;;;;4.80;1.77;;;12.40;31.00;;;;;;5005349;28;20539;-53
2022/07/17 00:41:28;;;;;;;3.10;1.97;;;12.30;30.00;;;;;;5008754;28;20878;-53
2022/07/17 00:43:55;;;;;;;4.20;1.60;;;12.20;21.90;;;;;;5009566;28;20464;-54
2022/07/17 00:46:21;;;;;;;5.40;1.83;;;12.20;86.30;;;;;;5014156;28;20455;-55
2022/07/17 00:48:48;;;;;;;5.17;2.03;;;12.10;21.00;;;;;;5009653;28;20460;-56
2022/07/17 00:51:15;;;;;;;2.70;1.50;;;12.00;99.90;;;;;;5008380;28;20892;-55
2022/07/17 00:53:44;;;;;;;3.00;2.20;;;12.00;99.20;;;;;;5007921;28;20464;-55
2022/07/17 00:56:11;;;;;;;4.07;2.20;;;11.90;99.90;;;;;;5010755;28;20510;-55
2022/07/17 00:58:40;;;;;;;10.23;2.73;;;11.90;99.90;;;;;;5007920;28;20842;-55
2022/07/17 01:01:07;;;;;;;4.77;2.67;;;11.80;99.90;;;;;;5008545;28;20467;-53
2022/07/17 01:03:34;;;;;;;3.00;1.50;;;11.90;99.90;;;;;;5006101;28;20498;-53
2022/07/17 01:06:01;;;;;;;3.87;1.60;;;11.80;99.90;;;;;;5009630;28;20455;-54
2022/07/17 01:08:28;;;;;;;4.90;1.67;;;11.70;99.90;;;;;;5005514;28;21292;-53
2022/07/17 01:10:55;;;;;;;3.60;1.83;;;11.70;99.90;;;;;;5008966;28;20882;-54
2022/07/17 01:13:22;;;;;;;3.43;1.33;;;11.70;99.90;;;;;;5008675;28;20463;-55
2022/07/17 01:15:50;;;;;;;5.27;1.80;;;11.60;99.90;;;;;;5010340;28;20467;-55
2022/07/17 01:18:16;;;;;;;2.67;1.50;;;11.50;99.90;;;;;;5011733;28;21329;-55
2022/07/17 01:20:45;;;;;;;3.13;1.83;;;11.50;99.90;;;;;;5009957;28;21016;-55
2022/07/17 01:23:14;;;;;;;5.53;1.63;;;11.40;99.90;;;;;;5008378;28;20941;-53
2022/07/17 01:25:41;;;;;;;3.50;1.60;;;11.30;99.90;;;;;;5005747;28;20459;-53
2022/07/17 01:28:08;;;;;;;5.10;1.47;;;11.30;99.90;;;;;;5009514;28;20900;-55
2022/07/17 01:30:35;;;;;;;6.30;1.87;;;11.30;99.90;;;;;;5004213;28;20474;-54
2022/07/17 01:33:02;;;;;;;2.47;1.30;;;11.20;99.90;;;;;;5007531;28;20467;-54
2022/07/17 01:35:28;;;;;;;8.00;1.90;;;11.10;99.90;;;;;;5006575;28;20949;-54
2022/07/17 01:37:55;;;;;;;3.27;1.60;;;11.00;99.90;;;;;;5007722;28;20606;-53
2022/07/17 01:40:23;;;;;;;2.97;1.70;;;11.00;99.90;;;;;;5009074;28;20471;-54
2022/07/17 01:42:50;;;;;;;5.17;1.40;;;11.00;99.90;;;;;;5009030;28;20515;-54
2022/07/17 01:45:19;;;;;;;3.80;1.70;;;11.00;99.90;;;;;;5000441;28;20547;-54
2022/07/17 01:47:46;;;;;;;5.00;1.90;;;11.00;99.90;;;;;;5008324;28;20494;-54
2022/07/17 01:50:14;;;;;;;8.83;1.87;;;11.00;99.90;;;;;;5008271;28;20878;-54
2022/07/17 01:52:42;;;;;;;5.87;1.63;;;11.00;99.90;;;;;;5008528;28;20464;-54
2022/07/17 01:55:11;;;;;;;5.23;1.93;;;10.90;99.90;;;;;;5006932;28;20456;-55
2022/07/17 01:57:40;;;;;;;5.07;1.83;;;10.80;99.90;;;;;;5012708;28;20906;-55
2022/07/17 02:00:10;;;;;;;3.90;1.70;;;10.70;99.90;;;;;;5006584;28;20467;-55
2022/07/17 02:02:36;;;;;;;5.30;1.87;;;10.80;99.90;;;;;;5009666;28;20533;-54
2022/07/17 02:05:04;;;;;;;2.63;1.70;;;10.70;99.90;;;;;;5005317;28;20953;-54
2022/07/17 02:07:31;;;;;;;2.50;1.60;;;10.70;99.90;;;;;;5003499;28;20486;-55
2022/07/17 02:09:57;;;;;;;3.67;1.70;;;10.70;99.90;;;;;;5005101;28;20823;-54
2022/07/17 02:12:24;;;;;;;4.27;1.70;;;10.70;99.90;;;;;;5007720;28;20518;-55
2022/07/17 02:14:52;;;;;;;1.77;1.47;;;10.70;99.90;;;;;;5003332;28;20455;-54
2022/07/17 02:17:18;;;;;;;4.20;1.50;;;10.70;99.90;;;;;;5006098;28;20839;-54
2022/07/17 02:19:45;;;;;;;4.70;1.57;;;10.70;99.90;;;;;;5009322;28;20545;-55
2022/07/17 02:22:12;;;;;;;5.00;1.60;;;10.70;99.90;;;;;;5008126;28;20958;-54
2022/07/17 02:24:38;;;;;;;5.47;1.80;;;10.50;99.90;;;;;;5012320;28;20530;-54
2022/07/17 02:27:05;;;;;;;4.40;1.60;;;10.50;99.90;;;;;;5012203;28;20851;-54
2022/07/17 02:29:31;;;;;;;4.20;2.47;;;10.50;99.90;;;;;;5009249;28;20522;-54
2022/07/17 02:31:59;;;;;;;8.90;2.70;;;10.50;99.90;;;;;;5012062;28;21011;-54
2022/07/17 02:34:26;;;;;;;6.40;2.00;;;10.50;99.90;;;;;;5007579;28;20456;-54
2022/07/17 02:36:52;;;;;;;4.30;1.60;;;10.30;99.90;;;;;;5010114;28;20608;-54
2022/07/17 02:39:19;;;;;;;4.37;2.00;;;10.30;99.90;;;;;;5011526;28;20483;-55
2022/07/17 02:41:46;;;;;;;3.37;1.97;;;10.30;99.90;;;;;;5011580;28;20460;-54
2022/07/17 02:44:12;;;;;;;6.23;2.10;;;10.20;99.90;;;;;;5009672;28;20460;-55
2022/07/17 02:46:39;;;;;;;2.60;1.67;;;10.10;99.90;;;;;;5011520;28;20988;-53
2022/07/17 02:49:07;;;;;;;2.00;1.57;;;10.10;99.90;;;;;;5012641;28;20455;-53
2022/07/17 02:51:33;;;;;;;4.23;1.77;;;10.10;99.90;;;;;;5010492;28;20463;-53
2022/07/17 02:54:00;;;;;;;2.40;1.63;;;10.20;99.90;;;;;;5014330;28;20463;-55
2022/07/17 02:56:26;;;;;;;6.23;1.80;;;10.20;99.90;;;;;;5011903;28;20459;-54
2022/07/17 02:58:53;;;;;;;3.50;1.27;;;10.10;99.90;;;;;;5011567;28;20487;-54
2022/07/17 03:01:20;;;;;;;4.63;1.97;;;10.20;99.90;;;;;;5011313;28;20463;-55
2022/07/17 03:03:46;;;;;;;4.40;1.80;;;10.20;99.90;;;;;;5008526;28;20464;-54
2022/07/17 03:06:14;;;;;;;3.27;1.37;;;10.10;99.90;;;;;;5012805;28;20460;-55
2022/07/17 03:08:41;;;;;;;2.97;1.87;;;10.10;99.90;;;;;;5010299;28;20468;-54
2022/07/17 03:11:08;;;;;;;3.73;1.70;;;10.00;99.90;;;;;;5005785;28;20971;-55
2022/07/17 03:13:34;;;;;;;8.67;1.70;;;10.10;99.90;;;;;;5008778;28;20521;-52
2022/07/17 03:16:01;;;;;;;3.03;1.37;;;10.10;99.90;;;;;;5013486;28;20464;-54
2022/07/17 03:18:28;;;;;;;4.13;1.70;;;10.00;99.90;;;;;;5039963;22;20486;-53
2022/07/17 03:20:54;;;;;;;10.03;1.60;;;10.00;99.90;;;;;;5028969;28;20520;-52
2022/07/17 03:23:22;;;;;;;2.33;1.47;;;9.90;99.90;;;;;;5027130;28;21580;-52
2022/07/17 03:25:49;;;;;;;4.97;1.60;;;10.00;99.90;;;;;;5026700;28;20474;-54
2022/07/17 03:28:16;;;;;;;2.80;1.73;;;9.80;99.90;;;;;;5030618;28;20540;-53
2022/07/17 03:30:42;;;;;;;1.23;1.13;;;9.90;99.90;;;;;;5031431;28;20462;-53
2022/07/17 03:33:09;;;;;;;4.83;1.70;;;10.00;99.90;;;;;;5029612;28;20512;-54
2022/07/17 03:35:36;;;;;;;2.90;1.70;;;9.90;99.90;;;;;;5028411;28;20857;-55
2022/07/17 03:38:03;;;;;;;2.93;1.40;;;9.90;99.90;;;;;;5029144;28;21001;-53
2022/07/17 03:40:31;;;;;;;3.73;1.70;;;10.00;99.90;;;;;;5029038;28;21007;-54
2022/07/17 03:42:57;;;;;;;2.63;1.50;;;9.90;99.90;;;;;;5029624;28;20462;-53
2022/07/17 03:45:24;;;;;;;9.10;1.70;;;10.00;99.90;;;;;;5022997;28;20514;-54
2022/07/17 03:47:50;;;;;;;4.87;1.80;;;10.10;99.90;;;;;;5030310;28;20501;-54
2022/07/17 03:50:17;;;;;;;4.60;1.63;;;10.00;99.90;;;;;;5027844;28;21029;-53
2022/07/17 03:52:44;;;;;;;3.90;1.60;;;10.10;99.90;;;;;;5032703;28;20462;-52
2022/07/17 03:55:10;;;;;;;3.60;2.10;;;10.20;99.90;;;;;;5027676;28;20463;-53
2022/07/17 03:57:38;;;;;;;2.70;1.40;;;10.20;99.90;;;;;;5032094;28;20505;-53
2022/07/17 04:00:07;;;;;;;6.77;1.70;;;10.20;99.90;;;;;;5031175;28;20483;-53
2022/07/17 04:02:34;;;;;;;5.60;1.60;;;10.30;99.90;;;;;;5028043;28;20467;-52
2022/07/17 04:05:00;;;;;;;2.60;1.43;;;10.30;99.90;;;;;;5030166;28;20826;-53
2022/07/17 04:07:30;;;;;;;2.50;1.33;;;10.30;99.90;;;;;;5023852;28;20475;-53
2022/07/17 04:09:58;;;;;;;1.50;1.40;;;10.40;99.90;;;;;;5028770;28;20450;-54
2022/07/17 04:12:25;;;;;;;3.90;1.93;;;10.40;99.90;;;;;;5030075;28;20947;-54
2022/07/17 04:14:53;;;;;;;1.77;1.30;;;10.40;99.90;;;;;;5031343;28;20466;-52
2022/07/17 04:17:20;;;;;;;5.97;1.80;;;10.50;99.90;;;;;;5028911;28;20996;-54
2022/07/17 04:19:48;;;;;;;8.33;1.80;;;10.60;99.90;;;;;;5030882;28;20517;-54
2022/07/17 04:22:14;;;;;;;4.10;1.60;;;10.70;99.90;;;;;;5030463;28;20463;-53
2022/07/17 04:24:41;;;;;;;5.50;1.33;;;10.80;99.90;;;;;;5028049;28;20490;-53
2022/07/17 04:27:09;;;;;;;2.97;1.50;;;10.90;99.90;;;;;;5025939;28;20485;-53
2022/07/17 04:29:36;;;;;;;5.63;1.70;;;11.00;99.90;;;;;;5026983;28;20459;-53
2022/07/17 04:32:05;;;;;;;4.43;1.60;;;11.00;99.90;;;;;;5024218;28;20467;-53
2022/07/17 04:34:32;;;;;;;5.60;2.20;;;11.10;99.90;;;;;;5030822;28;20470;-51
2022/07/17 04:36:59;;;;;;;5.13;1.67;;;11.30;99.90;;;;;;5030662;28;20906;-52
2022/07/17 04:39:26;;;;;;;8.87;1.90;;;11.30;99.90;;;;;;5034885;28;20474;-51
2022/07/17 04:41:53;;;;;;;6.13;2.40;;;11.40;99.90;;;;;;5029705;28;20521;-55
2022/07/17 04:44:20;;;;;;;4.93;1.77;;;11.50;99.90;;;;;;5022730;28;20505;-52
2022/07/17 04:46:46;;;;;;;4.60;1.70;;;11.60;99.90;;;;;;5029632;28;20462;-52
2022/07/17 04:49:14;;;;;;;4.17;1.73;;;11.70;99.90;;;;;;5029878;28;20451;-52
2022/07/17 04:51:41;;;;;;;16.27;2.03;;;11.70;99.90;;;;;;5027066;28;20871;-53
2022/07/17 04:54:08;;;;;;;5.20;1.90;;;11.80;99.90;;;;;;5037786;28;20459;-54
2022/07/17 04:56:35;;;;;;;9.63;1.60;;;11.90;99.90;;;;;;5023453;28;20459;-52
2022/07/17 04:59:01;;;;;;;3.33;1.30;;;12.00;99.90;;;;;;5020636;28;20478;-53
2022/07/17 05:01:28;;;;;;;8.03;1.83;;;12.00;99.90;;;;;;5029284;28;20581;-53
2022/07/17 05:03:54;;;;;;;7.47;2.10;;;12.10;99.90;;;;;;5032287;28;20827;-53
2022/07/17 05:06:22;;;;;;;8.37;1.80;;;12.20;99.90;;;;;;5030385;28;20497;-53
2022/07/17 05:08:49;;;;;;;4.23;1.83;;;12.20;99.90;;;;;;5030968;28;20474;-52
2022/07/17 05:11:16;;;;;;;10.40;1.93;;;12.20;99.90;;;;;;5030540;28;20511;-52
2022/07/17 05:13:42;;;;;;;8.40;2.77;;;12.30;99.90;;;;;;5027350;28;20517;-53
2022/07/17 05:16:09;;;;;;;6.20;2.47;;;12.40;99.90;;;;;;5028249;28;20878;-53
2022/07/17 05:18:36;;;;;;;7.00;2.43;;;12.40;99.90;;;;;;5029644;28;20544;-53
2022/07/17 05:21:02;;;;;;;7.87;1.90;;;12.50;99.90;;;;;;5030828;28;20499;-53
2022/07/17 05:23:30;;;;;;;12.40;2.30;;;12.50;99.90;;;;;;5031318;28;20524;-52
2022/07/17 05:25:57;;;;;;;4.30;1.90;;;12.60;99.90;;;;;;5029145;28;20463;-54
2022/07/17 05:28:24;;;;;;;8.50;2.27;;;12.70;99.90;;;;;;5028693;28;20996;-54
2022/07/17 05:30:51;;;;;;;6.23;2.20;;;12.70;99.90;;;;;;5025949;28;20463;-52
2022/07/17 05:33:17;;;;;;;5.53;1.70;;;12.80;99.90;;;;;;5031661;28;20466;-53
2022/07/17 05:35:44;;;;;;;7.03;1.80;;;12.90;99.90;;;;;;5027212;28;20940;-54
2022/07/17 05:38:11;;;;;;;4.50;1.80;;;12.90;99.90;;;;;;5030127;28;20478;-53
2022/07/17 05:40:39;;;;;;;7.63;1.87;;;13.00;99.90;;;;;;5028289;28;20532;-53
2022/07/17 05:43:05;;;;;;;5.20;2.00;;;13.10;99.90;;;;;;5030056;28;20486;-52
2022/07/17 05:45:32;;;;;;;6.47;1.93;;;13.10;99.90;;;;;;5027940;28;20505;-53
2022/07/17 05:47:59;;;;;;;9.43;1.90;;;13.20;99.90;;;;;;5021795;28;20528;-52
2022/07/17 05:50:25;;;;;;;4.93;2.17;;;13.40;99.90;;;;;;5031090;28;20469;-53
2022/07/17 05:52:52;;;;;;;3.90;1.47;;;13.40;83.50;;;;;;5028725;28;20455;-52
2022/07/17 05:55:19;;;;;;;9.30;2.83;;;13.50;84.50;;;;;;5029615;28;20455;-53
2022/07/17 05:57:47;;;;;;;1.80;1.50;;;13.60;26.60;;;;;;5032595;28;20478;-53
2022/07/17 06:00:14;;;;;;;13.50;2.07;;;13.70;27.00;;;;;;5031536;28;20482;-52
2022/07/17 06:02:40;;;;;;;5.07;1.67;;;13.80;38.40;;;;;;5030841;28;20531;-53
2022/07/17 06:05:08;;;;;;;9.63;2.10;;;13.90;42.30;;;;;;5031132;28;20454;-53
2022/07/17 06:07:34;;;;;;;2.53;1.80;;;13.90;50.90;;;;;;5030561;28;20509;-52
2022/07/17 06:10:01;;;;;;;6.33;1.80;;;14.00;52.20;;;;;;5032370;28;20528;-54
2022/07/17 06:12:28;;;;;;;5.60;2.00;;;14.10;60.70;;;;;;5031762;28;20466;-54
2022/07/17 06:14:56;;;;;;;4.97;1.70;;;14.20;64.70;;;;;;5032392;28;20458;-54
2022/07/17 06:17:22;;;;;;;5.77;1.73;;;14.20;64.30;;;;;;5032496;28;20493;-54
2022/07/17 06:19:51;;;;;;;7.93;1.43;;;14.30;67.90;;;;;;5030498;28;20532;-53
2022/07/17 06:22:18;;;;;;;3.00;1.60;;;14.40;75.30;;;;;;5027877;28;20557;-53
2022/07/17 06:24:45;;;;;;;5.30;1.90;;;14.50;73.80;;;;;;5026890;28;20536;-54
2022/07/17 06:27:11;;;;;;;2.33;1.67;;;14.60;70.60;;;;;;5034132;28;20489;-53
2022/07/17 06:29:38;;;;;;;5.73;1.80;;;14.70;78.70;;;;;;5026936;28;20581;-53
2022/07/17 06:32:06;;;;;;;5.00;1.67;;;14.80;81.30;;;;;;5027118;28;20466;-54
2022/07/17 06:34:33;;;;;;;3.27;1.60;;;14.90;80.30;;;;;;5034336;28;20542;-54
2022/07/17 06:37:00;;;;;;;5.30;2.10;;;15.00;81.80;;;;;;5025166;28;20478;-53
2022/07/17 06:39:26;;;;;;;7.50;2.00;;;15.10;86.10;;;;;;5030763;28;20482;-53
2022/07/17 06:41:53;;;;;;;8.73;1.90;;;15.10;99.90;;;;;;5029066;28;20524;-53
2022/07/17 06:44:19;;;;;;;10.67;1.90;;;15.20;99.90;;;;;;5030305;28;20467;-52
2022/07/17 06:46:46;;;;;;;5.90;1.60;;;15.20;99.90;;;;;;5031809;28;21160;-54
2022/07/17 06:49:14;;;;;;;6.13;1.33;;;15.20;99.90;;;;;;5027202;28;20455;-53
2022/07/17 06:51:41;;;;;;;2.80;1.60;;;15.20;99.90;;;;;;5032956;28;20979;-53
2022/07/17 06:54:09;;;;;;;4.30;2.03;;;15.20;99.90;;;;;;5031716;28;20577;-53
2022/07/17 06:56:36;;;;;;;3.30;2.00;;;15.20;99.90;;;;;;5027352;28;20467;-53
2022/07/17 06:59:03;;;;;;;3.37;1.50;;;15.10;99.90;;;;;;5030071;28;20540;-53
2022/07/17 07:01:29;;;;;;;4.57;1.20;;;15.20;99.90;;;;;;5029664;28;20541;-52
2022/07/17 07:03:56;;;;;;;3.20;1.57;;;15.20;99.90;;;;;;5031195;28;20497;-53
2022/07/17 07:06:24;;;;;;;2.07;1.37;;;15.20;99.90;;;;;;5030425;28;20809;-52
2022/07/17 07:08:50;;;;;;;4.93;1.47;;;15.30;99.30;;;;;;5031547;28;20486;-52
2022/07/17 07:11:17;;;;;;;5.60;1.53;;;15.40;99.90;;;;;;5027030;28;20451;-51
2022/07/17 07:13:43;;;;;;;6.30;1.20;;;15.40;99.90;;;;;;5028394;28;20462;-53
2022/07/17 07:16:10;;;;;;;2.23;1.50;;;15.40;99.90;;;;;;5029892;28;20463;-52
2022/07/17 07:18:37;;;;;;;3.23;1.80;;;15.40;99.90;;;;;;5021284;28;20497;-52
2022/07/17 07:21:04;;;;;;;8.30;1.77;;;15.40;99.90;;;;;;5020594;28;20493;-52
2022/07/17 07:23:32;;;;;;;2.10;1.27;;;15.40;99.90;;;;;;5024637;28;20512;-54
2022/07/17 07:25:59;;;;;;;2.53;1.50;;;15.40;99.90;;;;;;5028255;28;20469;-54
2022/07/17 07:28:26;;;;;;;6.20;2.83;;;15.40;99.90;;;;;;5026240;28;20490;-52
2022/07/17 07:30:52;;;;;;;3.83;1.43;;;15.40;99.90;;;;;;5027012;28;20823;-52
2022/07/17 07:33:19;;;;;;;9.50;1.80;;;15.40;99.90;;;;;;5030796;28;20861;-53
2022/07/17 07:35:46;;;;;;;3.10;1.30;;;15.40;99.90;;;;;;5029954;28;20467;-53
2022/07/17 07:38:12;;;;;;;7.80;2.30;;;15.30;99.90;;;;;;5025538;28;20482;-55
2022/07/17 07:40:40;;;;;;;5.73;1.50;;;15.30;99.90;;;;;;5028143;28;20996;-52
2022/07/17 07:43:07;;;;;;;3.47;1.50;;;15.30;98.90;;;;;;5026176;28;20459;-52
2022/07/17 07:45:34;;;;;;;5.97;1.70;;;15.20;99.90;;;;;;5031718;28;20459;-53
2022/07/17 07:48:01;;;;;;;6.97;2.30;;;15.30;96.50;;;;;;5029106;28;20486;-52
2022/07/17 07:50:28;;;;;;;4.20;2.10;;;15.30;98.60;;;;;;5028986;28;21010;-52
2022/07/17 07:52:55;;;;;;;3.67;1.30;;;15.40;98.20;;;;;;5030853;28;20459;-54
2022/07/17 07:55:22;;;;;;;13.53;1.63;;;15.40;97.90;;;;;;5029948;28;20454;-53
2022/07/17 07:57:50;;;;;;;8.10;1.70;;;15.40;99.90;;;;;;5025689;28;20479;-54
2022/07/17 08:00:18;;;;;;;6.83;2.03;;;15.50;99.00;;;;;;5027019;28;20991;-52
2022/07/17 08:02:44;;;;;;;8.63;2.80;;;15.60;96.40;;;;;;5027945;28;20463;-53
2022/07/17 08:05:11;;;;;;;4.30;1.70;;;15.70;99.90;;;;;;5026530;28;20513;-52
2022/07/17 08:07:38;;;;;;;7.70;2.03;;;15.80;99.90;;;;;;5026428;28;20488;-54
2022/07/17 08:10:05;;;;;;;3.43;1.90;;;15.80;99.90;;;;;;5029685;28;20462;-53
2022/07/17 08:12:32;;;;;;;2.10;1.40;;;15.70;99.90;;;;;;5020937;28;20475;-53
2022/07/17 08:15:00;;;;;;;4.70;1.80;;;15.70;99.90;;;;;;5021572;28;20467;-53
2022/07/17 08:17:27;;;;;;;4.43;1.77;;;15.70;99.90;;;;;;5017214;28;20505;-54
2022/07/17 08:19:54;;;;;;;4.40;1.47;;;15.80;99.90;;;;;;5021310;28;20459;-53
2022/07/17 08:22:21;;;;;;;5.50;2.20;;;15.70;99.90;;;;;;5019160;28;20486;-53
2022/07/17 08:24:47;;;;;;;5.87;2.30;;;15.80;99.90;;;;;;5022737;28;20466;-53
2022/07/17 08:27:14;;;;;;;8.67;2.80;;;15.80;99.90;;;;;;5023347;28;20532;-53
2022/07/17 08:29:41;;;;;;;9.00;2.07;;;15.80;99.90;;;;;;5029599;28;20469;-53
2022/07/17 08:32:09;;;;;;;7.67;1.90;;;15.80;99.90;;;;;;5029336;28;20473;-53
2022/07/17 08:34:35;;;;;;;6.17;1.37;;;15.80;99.90;;;;;;5027447;28;20568;-53
2022/07/17 08:37:02;;;;;;;4.53;1.30;;;15.80;99.90;;;;;;5024504;28;21051;-53
2022/07/17 08:39:29;;;;;;;4.33;1.43;;;15.90;99.90;;;;;;5025271;28;20462;-53
2022/07/17 08:41:55;;;;;;;6.60;1.87;;;16.00;99.90;;;;;;5018779;28;20502;-53
2022/07/17 08:44:22;;;;;;;11.97;2.37;;;16.10;99.90;;;;;;5024169;28;20454;-53
2022/07/17 08:46:49;;;;;;;3.77;2.23;;;16.30;99.90;;;;;;5022233;28;20456;-53
2022/07/17 08:49:22;;;;;;;7.00;1.70;;;16.30;99.90;;;;;;5019090;28;20470;-52
2022/07/17 08:51:49;;;;;;;3.87;1.63;;;16.30;99.90;;;;;;5022911;28;20469;-52
2022/07/17 08:54:16;;;;;;;5.30;1.50;;;16.30;99.90;;;;;;5022731;28;20469;-52
2022/07/17 08:56:43;;;;;;;6.97;2.00;;;16.30;99.90;;;;;;5023571;28;21023;-52
2022/07/17 08:59:11;;;;;;;4.20;1.97;;;16.30;99.90;;;;;;5028265;28;20462;-52
2022/07/17 09:01:37;;;;;;;7.57;1.77;;;16.30;99.90;;;;;;5022609;28;21768;-52
2022/07/17 09:04:07;;;;;;;8.00;2.07;;;16.30;99.90;;;;;;5026277;28;20455;-51
2022/07/17 09:06:36;;;;;;;6.30;1.90;;;16.30;99.90;;;;;;5022216;28;21012;-52
2022/07/17 09:09:04;;;;;;;4.80;2.00;;;16.40;99.90;;;;;;5018428;28;20524;-51
2022/07/17 09:11:42;;;;;;;8.00;2.23;;;16.60;99.90;;;;;;5021205;28;22714;-52
2022/07/17 09:14:09;;;;;;;4.67;2.30;;;17.00;99.90;;;;;;5023366;28;20871;-52
2022/07/17 09:16:37;;;;;;;9.60;1.83;;;17.30;99.90;;;;;;5013294;28;20459;-52
2022/07/17 09:19:03;;;;;;;7.87;1.80;;;17.50;99.90;;;;;;5024343;28;20529;-52
2022/07/17 09:21:31;;;;;;;1.93;1.30;;;17.70;99.90;;;;;;5022470;28;20536;-52
2022/07/17 09:24:00;;;;;;;2.30;1.13;;;17.60;99.90;;;;;;5018111;28;20455;-50
2022/07/17 09:26:28;;;;;;;5.90;1.63;;;17.40;99.90;;;;;;5026714;28;20467;-51
2022/07/17 09:28:54;;;;;;;4.03;1.90;;;17.10;99.90;;;;;;5027038;28;20475;-51
2022/07/17 09:31:28;;;;;;;3.70;1.80;;;17.00;99.90;;;;;;5025083;28;20455;-51
2022/07/17 09:33:55;;;;;;;4.60;1.60;;;16.90;99.90;;;;;;5022046;28;20466;-50
2022/07/17 09:36:22;;;;;;;6.77;1.70;;;16.90;99.90;;;;;;5024758;28;20796;-51
2022/07/17 09:38:53;;;;;;;9.67;2.13;;;17.00;99.90;;;;;;5024556;28;20483;-51
2022/07/17 09:41:22;;;;;;;10.57;2.30;;;17.00;99.90;;;;;;5025082;28;20904;-52
2022/07/17 09:43:52;;;;;;;4.60;2.10;;;16.90;99.90;;;;;;5026415;28;21061;-52
2022/07/17 09:46:21;;;;;;;1.40;1.20;;;17.10;99.90;;;;;;5026640;28;20463;-51
2022/07/17 09:48:50;;;;;;;7.23;2.67;;;17.30;99.90;;;;;;5025471;28;20482;-52
2022/07/17 09:51:19;;;;;;;3.30;1.47;;;17.60;99.90;;;;;;5026261;28;20833;-51
2022/07/17 09:53:48;;;;;;;5.30;1.40;;;17.80;99.90;;;;;;5024345;28;20470;-51
2022/07/17 09:56:16;;;;;;;10.90;2.20;;;18.00;99.90;;;;;;5029137;28;20463;-51
2022/07/17 09:58:48;;;;;;;8.40;3.30;;;18.00;99.90;;;;;;5026112;28;20546;-50
2022/07/17 10:01:15;;;;;;;10.03;2.07;;;18.00;99.90;;;;;;5024407;28;20503;-51
2022/07/17 10:03:42;;;;;;;5.90;1.70;;;18.00;99.90;;;;;;5028316;28;20796;-51
2022/07/17 10:06:09;;;;;;;7.00;1.50;;;18.00;99.90;;;;;;5026127;28;20459;-52
2022/07/17 10:08:37;;;;;;;6.37;1.90;;;18.00;99.90;;;;;;5023353;28;20478;-50
2022/07/17 10:11:04;;;;;;;5.93;1.77;;;17.90;99.90;;;;;;5022410;28;20947;-51
2022/07/17 10:13:32;;;;;;;7.80;2.20;;;17.90;99.90;;;;;;5024364;28;20530;-51
2022/07/17 10:16:00;;;;;;;4.73;1.60;;;17.90;99.90;;;;;;5019821;28;20544;-51
2022/07/17 10:18:36;;;;;;;6.10;2.00;;;17.80;99.90;;;;;;5013331;28;20552;-52
2022/07/17 10:21:10;;;;;;;9.10;1.60;;;17.80;99.90;;;;;;5021772;28;20849;-51
2022/07/17 10:23:37;;;;;;;4.80;1.77;;;17.80;99.90;;;;;;5016112;28;20490;-51
2022/07/17 10:26:04;;;;;;;4.07;2.00;;;17.90;99.90;;;;;;5021777;28;20482;-50
2022/07/17 10:28:40;;;;;;;4.07;1.87;;;18.00;99.90;;;;;;5025446;28;20883;-50
2022/07/17 10:31:08;;;;;;;4.20;1.63;;;18.10;99.90;;;;;;5016884;28;20461;-52
2022/07/17 10:33:35;;;;;;;11.93;1.83;;;18.10;99.90;;;;;;5023850;28;20469;-51
2022/07/17 10:36:01;;;;;;;7.30;1.97;;;18.20;99.90;;;;;;5027418;28;20454;-51
2022/07/17 10:38:29;;;;;;;7.20;2.00;;;18.20;99.90;;;;;;5026459;28;21007;-51
2022/07/17 10:41:01;;;;;;;3.77;1.77;;;18.40;99.90;;;;;;5020257;28;20474;-50
2022/07/17 10:43:28;;;;;;;5.60;1.53;;;18.40;99.90;;;;;;5029892;28;20469;-50
2022/07/17 10:45:55;;;;;;;6.17;2.33;;;18.50;99.90;;;;;;5027483;28;20553;-51
2022/07/17 10:48:24;;;;;;;6.37;1.50;;;18.70;99.90;;;;;;5031614;28;20552;-55
2022/07/17 10:50:53;;;;;;;6.53;1.83;;;18.90;99.90;;;;;;5029769;28;20540;-52
2022/07/17 10:53:23;;;;;;;7.10;1.93;;;19.10;99.90;;;;;;5028898;28;20952;-52
2022/07/17 10:55:52;;;;;;;6.63;2.17;;;19.30;99.90;;;;;;5025789;28;20456;-52
2022/07/17 10:58:22;;;;;;;4.27;1.60;;;19.40;99.90;;;;;;5027995;28;20485;-51
2022/07/17 11:01:03;;;;;;;4.57;1.43;;;19.40;99.90;;;;;;5028003;28;20844;-52
2022/07/17 11:03:33;;;;;;;8.90;2.20;;;19.30;99.90;;;;;;5028997;28;20545;-51
2022/07/17 11:06:16;;;;;;;6.57;2.33;;;19.40;99.90;;;;;;5028596;28;20466;-52
2022/07/17 11:08:45;;;;;;;6.20;1.80;;;19.50;99.90;;;;;;5029797;28;20493;-51
2022/07/17 11:11:12;;;;;;;4.17;1.67;;;19.60;99.90;;;;;;5027673;28;22608;-52
2022/07/17 11:13:39;;;;;;;5.50;2.20;;;19.80;99.90;;;;;;5021401;28;20532;-51
2022/07/17 11:16:05;;;;;;;4.43;1.87;;;19.80;99.90;;;;;;5023068;28;20464;-51
2022/07/17 11:18:36;;;;;;;12.87;2.37;;;20.00;99.90;;;;;;5026680;28;20490;-52
2022/07/17 11:21:04;;;;;;;4.17;1.83;;;20.20;99.90;;;;;;5028295;28;20483;-51
2022/07/17 11:23:32;;;;;;;4.50;1.70;;;20.10;99.90;;;;;;5023758;28;20549;-51
2022/07/17 11:26:02;;;;;;;9.30;2.17;;;20.20;99.90;;;;;;5023501;28;20826;-51
2022/07/17 11:28:37;;;;;;;6.03;1.83;;;20.10;99.90;;;;;;5022894;28;20622;-52
2022/07/17 11:31:06;;;;;;;2.03;1.40;;;20.00;99.90;;;;;;5022901;28;20481;-53
2022/07/17 11:33:34;;;;;;;5.80;1.63;;;20.10;99.90;;;;;;5025934;28;20459;-53
2022/07/17 11:36:00;;;;;;;2.97;1.60;;;20.30;1.40;;;;;;5026434;28;20462;-52
2022/07/17 11:38:29;;;;;;;6.10;1.70;;;20.30;99.90;;;;;;5030296;28;20479;-52
2022/07/17 11:40:56;;;;;;;6.13;1.50;;;20.40;99.90;;;;;;5030499;28;20459;-51
2022/07/17 11:43:23;;;;;;;5.70;1.70;;;20.60;99.90;;;;;;5031532;28;20521;-52
2022/07/17 11:45:50;;;;;;;13.10;2.03;;;20.60;99.90;;;;;;5028263;28;20469;-52
2022/07/17 11:48:17;;;;;;;15.83;1.63;;;20.50;99.90;;;;;;5032591;28;20909;-52
2022/07/17 11:50:55;;;;;;;2.57;1.70;;;20.50;99.90;;;;;;5032593;28;20474;-52
2022/07/17 11:53:32;;;;;;;2.03;1.50;;;20.50;99.90;;;;;;5029085;28;20450;-51
2022/07/17 11:55:59;;;;;;;1.90;1.30;;;20.60;99.90;;;;;;5030796;28;20565;-52
2022/07/17 11:58:25;;;;;;;6.50;1.90;;;20.80;99.90;;;;;;5031550;28;20488;-51
2022/07/17 12:01:01;;;;;;;5.30;1.43;;;20.80;99.90;;;;;;5031806;28;21224;-53
2022/07/17 12:03:28;;;;;;;4.57;1.73;;;20.80;99.90;;;;;;5029647;28;20528;-52
2022/07/17 12:05:56;;;;;;;4.67;1.87;;;20.90;99.90;;;;;;5032945;28;20528;-51
2022/07/17 12:08:23;;;;;;;3.83;1.87;;;21.00;99.90;;;;;;5032132;28;20536;-52
2022/07/17 12:11:01;;;;;;;5.40;1.60;;;21.00;99.90;;;;;;5030638;28;20478;-51
2022/07/17 12:13:42;;;;;;;7.77;1.70;;;21.00;99.90;;;;;;5026919;28;20458;-51
2022/07/17 12:16:24;;;;;;;5.27;1.47;;;21.10;99.90;;;;;;5029099;28;20463;-52
2022/07/17 12:19:04;;;;;;;2.70;1.67;;;21.20;99.90;;;;;;5029122;28;20895;-52
2022/07/17 12:21:33;;;;;;;8.47;1.87;;;21.20;99.90;;;;;;5027449;28;21016;-51
2022/07/17 12:24:02;;;;;;;3.13;1.47;;;21.30;99.90;;;;;;5029516;28;20463;-53
2022/07/17 12:26:29;;;;;;;4.93;1.70;;;21.40;99.90;;;;;;5026189;28;20461;-52
2022/07/17 12:28:57;;;;;;;2.83;1.20;;;21.30;99.90;;;;;;5028674;28;20552;-52
2022/07/17 12:31:24;;;;;;;4.30;1.73;;;21.30;99.90;;;;;;5029906;28;20818;-52
2022/07/17 12:33:53;;;;;;;4.57;1.60;;;21.50;99.90;;;;;;5031252;28;20910;-53
2022/07/17 12:36:21;;;;;;;3.87;1.50;;;21.60;99.90;;;;;;5029418;28;20537;-53
2022/07/17 12:38:49;;;;;;;3.20;1.20;;;21.70;99.90;;;;;;5029001;28;20851;-52
2022/07/17 12:41:16;;;;;;;8.97;1.67;;;21.70;99.90;;;;;;5029680;28;20508;-53
2022/07/17 12:43:43;;;;;;;4.00;1.60;;;21.80;99.90;;;;;;5032316;28;20501;-52
2022/07/17 12:46:10;;;;;;;1.80;1.20;;;21.90;99.90;;;;;;5029060;28;20473;-52
2022/07/17 12:48:38;;;;;;;6.97;1.90;;;21.90;99.90;;;;;;5029394;28;20494;-52